Time;durP1;ratioP1;P1;durP2;ratioP2;P2;SDS_P1;SDS_P2;PMS_P1;PMS_P2;Temp;Humidity;BMP_temperature;BMP_pressure;BME280_temperature;BME280_humidity;BME280_pressure;Samples;Min_cycle;Max_cycle;Signal;HPM_P1;HPM_P2
2023/10/19 00:02:15;;;;;;;28.33;25.15;;;14.10;99.90;;;14.22;100.00;98996.59;4819754;29;20054;-64
2023/10/19 00:04:43;;;;;;;34.88;25.55;;;14.00;99.90;;;14.15;100.00;99003.16;4810088;29;20043;-63
2023/10/19 00:07:15;;;;;;;28.10;24.90;;;14.00;99.90;;;14.26;100.00;99003.47;4818264;29;20051;-63
2023/10/19 00:09:46;;;;;;;28.00;24.60;;;14.00;99.90;;;14.26;100.00;99007.00;4817043;29;20051;-63
2023/10/19 00:12:16;;;;;;;27.83;24.80;;;14.00;99.90;;;14.28;100.00;99007.81;4809939;29;20059;-63
2023/10/19 00:14:43;;;;;;;26.20;23.42;;;14.00;99.90;;;14.27;100.00;98998.09;4810168;29;20139;-64
2023/10/19 00:17:12;;;;;;;26.90;24.17;;;14.00;99.90;;;14.28;100.00;99002.50;4817297;29;20055;-64
2023/10/19 00:19:42;;;;;;;29.58;25.25;;;14.00;99.90;;;14.41;100.00;99006.28;4817496;29;20198;-63
2023/10/19 00:22:16;;;;;;;26.25;23.45;;;14.10;99.90;;;14.38;100.00;99016.22;4809992;29;20100;-63
2023/10/19 00:24:44;;;;;;;26.77;24.08;;;14.20;99.90;;;14.45;100.00;99006.97;4819761;29;20051;-63
2023/10/19 00:27:18;;;;;;;25.65;23.05;;;14.20;99.90;;;14.43;100.00;99004.41;4814908;29;20042;-63
2023/10/19 00:29:49;;;;;;;25.98;23.35;;;14.20;99.90;;;14.46;100.00;99001.56;4811663;29;20057;-63
2023/10/19 00:32:19;;;;;;;28.02;25.13;;;14.20;99.90;;;14.52;100.00;98997.72;4820897;29;20483;-63
2023/10/19 00:34:51;;;;;;;28.25;24.33;;;14.30;99.90;;;14.59;100.00;99004.50;4812100;29;20054;-64
2023/10/19 00:37:26;;;;;;;25.52;22.83;;;14.30;99.90;;;14.53;100.00;98999.47;4797567;29;20486;-63
2023/10/19 00:39:56;;;;;;;25.75;23.05;;;14.30;99.90;;;14.63;100.00;98999.88;4821076;29;20047;-63
2023/10/19 00:42:30;;;;;;;26.77;23.75;;;14.40;99.90;;;14.68;100.00;98998.69;4810257;29;20054;-63
2023/10/19 00:45:04;;;;;;;26.13;23.33;;;14.40;99.90;;;14.67;100.00;99002.31;4815784;29;20151;-63
2023/10/19 00:47:39;;;;;;;25.83;23.15;;;14.40;99.90;;;14.78;100.00;98994.63;4802922;29;20153;-65
2023/10/19 00:50:15;;;;;;;27.33;24.42;;;14.50;99.90;;;14.75;100.00;99000.09;4809311;29;20058;-64
2023/10/19 00:52:49;;;;;;;25.65;22.95;;;14.50;99.90;;;14.79;100.00;98990.19;4816360;29;20489;-64
2023/10/19 00:55:21;;;;;;;28.23;25.27;;;14.60;99.90;;;14.84;100.00;98994.31;4818256;29;20052;-64
2023/10/19 00:57:54;;;;;;;28.88;25.77;;;14.60;99.90;;;14.82;100.00;99000.66;4819585;29;20104;-63
2023/10/19 01:00:30;;;;;;;29.45;26.15;;;14.60;99.90;;;14.88;100.00;98993.22;4818178;29;20420;-63
2023/10/19 01:03:04;;;;;;;27.25;24.40;;;14.70;99.90;;;14.99;100.00;98998.84;4800296;29;20050;-63
2023/10/19 01:05:36;;;;;;;23.35;20.85;;;14.70;99.90;;;15.23;100.00;99000.19;4819882;29;20404;-63
2023/10/19 01:08:19;;;;;;;19.13;17.20;;;15.00;99.90;;;15.48;100.00;99017.56;4819310;29;20043;-63
2023/10/19 01:10:52;;;;;;;16.95;15.15;;;15.20;99.90;;;15.71;100.00;98998.53;4815715;29;20046;-63
2023/10/19 01:13:26;;;;;;;12.70;11.07;;;15.40;99.90;;;15.87;100.00;99004.75;4809186;29;20488;-64
2023/10/19 01:15:55;;;;;;;11.80;9.15;;;15.60;99.90;;;15.97;100.00;99006.78;4793510;29;20058;-64
2023/10/19 01:18:32;;;;;;;7.88;7.03;;;15.70;99.90;;;16.09;100.00;99000.78;4819439;29;20066;-64
2023/10/19 01:21:07;;;;;;;8.68;6.43;;;15.80;99.90;;;16.22;100.00;99000.91;4821675;29;20085;-64
2023/10/19 01:23:39;;;;;;;10.10;6.22;;;15.90;99.90;;;15.87;100.00;98928.25;4812504;29;20057;-65
2023/10/19 01:26:08;;;;;;;7.40;5.25;;;16.00;99.90;;;16.28;100.00;98980.09;4820532;29;20141;-64
2023/10/19 01:28:48;;;;;;;8.77;4.78;;;16.10;99.90;;;16.37;100.00;99004.53;4819799;29;20481;-65
2023/10/19 01:31:30;;;;;;;7.05;4.53;;;16.10;99.90;;;16.42;100.00;99003.31;4812516;29;20116;-65
2023/10/19 01:34:03;;;;;;;7.40;4.25;;;16.10;99.90;;;16.50;100.00;99001.09;4820981;29;20053;-64
2023/10/19 01:36:37;;;;;;;7.85;4.05;;;16.20;99.90;;;16.52;100.00;98998.34;4819888;29;20523;-64
2023/10/19 01:39:10;;;;;;;5.55;3.85;;;16.20;99.90;;;16.58;100.00;98997.97;4812246;29;20494;-64
2023/10/19 01:41:41;;;;;;;9.63;4.53;;;16.30;99.90;;;16.58;100.00;98992.63;4822288;29;20078;-64
2023/10/19 01:44:13;;;;;;;6.35;3.80;;;16.30;99.90;;;16.64;100.00;98993.16;4818194;29;20100;-64
2023/10/19 01:46:43;;;;;;;8.40;3.70;;;16.40;99.90;;;16.53;100.00;98978.72;4813970;29;20058;-64
2023/10/19 01:49:12;;;;;;;7.35;3.92;;;16.40;99.90;;;16.72;100.00;99006.03;4823876;29;20111;-64
2023/10/19 01:51:40;;;;;;;5.70;3.53;;;16.40;99.90;;;16.73;100.00;99000.59;4814964;29;20506;-64
2023/10/19 01:54:11;;;;;;;6.85;4.82;;;16.40;99.90;;;16.76;100.00;99003.06;4816868;29;20050;-64
2023/10/19 01:56:42;;;;;;;12.52;4.57;;;16.50;99.90;;;16.85;100.00;99002.56;4822703;29;20401;-63
2023/10/19 01:59:11;;;;;;;16.23;4.55;;;16.60;99.90;;;16.91;100.00;98986.16;4808143;29;20571;-64
2023/10/19 02:01:41;;;;;;;9.00;4.63;;;16.60;99.90;;;16.89;100.00;98998.75;4810643;29;20049;-64
2023/10/19 02:04:13;;;;;;;7.15;4.10;;;16.70;99.90;;;16.92;100.00;98987.00;4815523;29;20489;-64
2023/10/19 02:06:41;;;;;;;7.70;4.10;;;16.60;99.90;;;16.94;100.00;98990.44;4823342;29;20121;-64
2023/10/19 02:09:21;;;;;;;9.02;4.43;;;16.70;99.90;;;16.95;100.00;98982.38;4796368;29;20115;-64
2023/10/19 02:11:52;;;;;;;9.20;4.38;;;16.70;99.90;;;16.96;100.00;98986.72;4813638;29;20050;-64
2023/10/19 02:14:20;;;;;;;8.32;4.15;;;16.70;99.90;;;17.01;100.00;98979.28;4822375;29;20081;-65
2023/10/19 02:16:52;;;;;;;6.45;3.20;;;16.70;99.90;;;17.02;100.00;98983.69;4811109;29;20123;-64
2023/10/19 02:19:21;;;;;;;10.50;3.80;;;16.80;99.90;;;16.99;100.00;98981.19;4819227;29;20055;-64
2023/10/19 02:21:53;;;;;;;5.82;3.30;;;16.70;99.90;;;16.99;100.00;98983.03;4802124;29;20055;-64
2023/10/19 02:24:23;;;;;;;5.88;3.05;;;16.70;99.90;;;16.98;100.00;98989.31;4821813;29;20067;-66
2023/10/19 02:26:53;;;;;;;8.27;2.97;;;16.70;99.90;;;17.01;100.00;98986.47;4822092;29;20051;-64
2023/10/19 02:29:22;;;;;;;;;;;16.70;99.90;;;17.00;100.00;98974.91;4800156;29;20080;-64
2023/10/19 02:31:50;;;;;;;7.60;3.53;;;16.70;99.90;;;16.94;100.00;98983.28;4813932;29;19925;-64
2023/10/19 02:34:19;;;;;;;5.35;2.90;;;16.70;99.90;;;16.96;100.00;98973.38;4806083;29;20456;-64
2023/10/19 02:36:47;;;;;;;5.88;3.03;;;16.70;99.90;;;16.93;100.00;98978.91;4812418;29;20046;-64
2023/10/19 02:39:17;;;;;;;10.32;3.53;;;16.70;99.90;;;16.89;100.00;98969.38;4816130;29;20090;-65
2023/10/19 02:41:48;;;;;;;4.80;2.80;;;16.60;99.90;;;16.42;100.00;98896.56;4803543;29;20054;-65
2023/10/19 02:44:23;;;;;;;5.05;2.97;;;16.60;99.90;;;16.85;100.00;98978.53;4810723;29;20051;-64
2023/10/19 02:46:52;;;;;;;5.65;3.30;;;16.60;99.90;;;16.92;100.00;98955.81;4809398;29;20082;-65
2023/10/19 02:49:23;;;;;;;6.32;3.10;;;16.70;99.90;;;16.86;100.00;98956.19;4813420;29;20054;-65
2023/10/19 02:51:53;;;;;;;4.78;3.45;;;16.70;99.90;;;16.99;100.00;98972.34;4821526;29;20088;-64
2023/10/19 02:54:24;;;;;;;4.77;3.43;;;16.70;99.90;;;17.01;100.00;98976.63;4810773;29;20042;-64
2023/10/19 02:56:56;;;;;;;8.10;3.65;;;16.70;99.90;;;16.56;100.00;98903.78;4817934;29;20133;-64
2023/10/19 02:59:28;;;;;;;6.85;3.35;;;16.70;99.90;;;16.48;100.00;98890.91;4802641;29;20058;-65
2023/10/19 03:02:01;;;;;;;4.88;3.08;;;16.70;99.90;;;17.04;100.00;98976.44;4810346;29;20439;-64
2023/10/19 03:04:31;;;;;;;4.97;3.33;;;16.80;99.90;;;16.96;100.00;98956.50;4819757;29;20062;-64
2023/10/19 03:06:59;;;;;;;4.20;3.28;;;16.70;99.90;;;16.85;100.00;98958.97;4800193;29;20046;-66
2023/10/19 03:09:29;;;;;;;7.57;3.47;;;16.70;99.90;;;16.93;100.00;98970.91;4808733;29;20055;-65
2023/10/19 03:11:59;;;;;;;;;;;16.60;99.90;;;16.91;100.00;98963.94;4823515;29;20066;-64
2023/10/19 03:14:28;;;;;;;4.85;3.20;;;16.60;99.90;;;16.89;100.00;98961.38;4817629;29;19968;-65
2023/10/19 03:16:57;;;;;;;7.25;3.38;;;16.60;99.90;;;16.90;100.00;98963.06;4816857;29;20627;-64
2023/10/19 03:19:26;;;;;;;8.07;3.40;;;16.60;99.90;;;16.86;100.00;98953.50;4811207;29;20050;-65
2023/10/19 03:21:55;;;;;;;6.60;3.55;;;16.60;99.90;;;16.82;100.00;98964.50;4807966;29;20405;-64
2023/10/19 03:24:35;;;;;;;6.57;3.58;;;16.50;99.90;;;16.79;100.00;98951.31;4817660;29;20617;-65
2023/10/19 03:27:12;;;;;;;5.93;3.67;;;16.50;99.90;;;16.83;100.00;98951.03;4818622;29;20077;-65
2023/10/19 03:29:45;;;;;;;7.57;3.25;;;16.50;99.90;;;16.82;100.00;98959.16;4810023;29;20114;-64
2023/10/19 03:32:15;;;;;;;5.60;2.97;;;16.50;99.90;;;16.76;100.00;98957.69;4817914;29;20046;-64
2023/10/19 03:34:49;;;;;;;8.32;3.47;;;16.50;99.90;;;16.77;100.00;98948.75;4800972;29;20378;-64
2023/10/19 03:37:19;;;;;;;9.68;3.28;;;16.50;99.90;;;16.78;100.00;98953.13;4820258;29;20054;-65
2023/10/19 03:39:51;;;;;;;8.77;3.17;;;16.50;99.90;;;16.76;100.00;98951.50;4808396;29;20058;-65
2023/10/19 03:42:22;;;;;;;4.88;3.15;;;16.50;99.90;;;16.79;100.00;98948.63;4815881;29;20379;-65
2023/10/19 03:44:53;;;;;;;10.00;3.63;;;16.50;99.90;;;16.82;100.00;98951.97;4818805;29;20050;-64
2023/10/19 03:47:31;;;;;;;5.68;3.67;;;16.50;99.90;;;16.37;100.00;98871.97;4809759;29;20061;-64
2023/10/19 03:50:06;;;;;;;6.30;3.08;;;16.50;99.90;;;16.83;100.00;98945.72;4817781;29;20152;-65
2023/10/19 03:52:37;;;;;;;10.52;3.40;;;16.50;99.90;;;16.92;100.00;98960.28;4801187;29;20569;-65
2023/10/19 03:55:15;;;;;;;9.35;3.65;;;16.60;99.90;;;16.92;100.00;98953.16;4793348;29;20055;-64
2023/10/19 03:57:50;;;;;;;9.32;3.63;;;16.60;99.90;;;16.94;100.00;98955.72;4818678;29;20146;-64
2023/10/19 04:00:21;;;;;;;7.00;3.88;;;16.60;99.90;;;17.03;100.00;98953.34;4816122;29;20119;-64
2023/10/19 04:02:53;;;;;;;7.45;3.58;;;16.70;99.90;;;17.05;100.00;98962.13;4810413;29;20059;-64
2023/10/19 04:05:22;;;;;;;8.98;3.17;;;16.70;99.90;;;17.01;100.00;98959.75;4791164;29;20522;-64
2023/10/19 04:07:54;;;;;;;7.90;4.30;;;16.70;99.90;;;17.05;100.00;98963.97;4813481;29;20057;-65
2023/10/19 04:10:30;;;;;;;11.35;3.47;;;16.70;99.90;;;17.07;100.00;98954.88;4812166;29;20458;-64
2023/10/19 04:13:00;;;;;;;8.38;3.53;;;16.80;99.90;;;17.07;100.00;98960.22;4820587;29;20489;-64
2023/10/19 04:15:33;;;;;;;5.68;3.30;;;16.80;99.90;;;17.10;100.00;98960.06;4811446;29;20051;-64
2023/10/19 04:18:08;;;;;;;9.40;3.42;;;16.80;99.90;;;17.15;100.00;98968.63;4814597;29;20069;-64
2023/10/19 04:20:42;;;;;;;8.63;3.67;;;16.80;99.90;;;17.00;100.00;98942.00;4823821;29;20056;-65
2023/10/19 04:23:14;;;;;;;8.77;3.40;;;16.90;99.90;;;17.12;100.00;98959.94;4809586;29;20461;-64
2023/10/19 04:25:45;;;;;;;13.50;3.72;;;16.80;99.90;;;17.11;100.00;98961.75;4815065;29;20343;-64
2023/10/19 04:28:20;;;;;;;7.55;3.65;;;16.80;99.90;;;17.09;100.00;98968.16;4818627;29;20043;-64
2023/10/19 04:30:48;;;;;;;8.77;3.97;;;16.80;99.90;;;17.10;100.00;98970.72;4809141;29;20370;-64
2023/10/19 04:33:18;;;;;;;11.13;3.50;;;16.80;99.90;;;17.08;100.00;98961.94;4817231;29;20039;-64
2023/10/19 04:35:52;;;;;;;9.13;3.90;;;16.80;99.90;;;17.05;100.00;98966.63;4815884;29;20050;-64
2023/10/19 04:38:20;;;;;;;11.43;4.00;;;16.80;99.90;;;17.08;100.00;98966.44;4808881;29;20047;-65
2023/10/19 04:40:49;;;;;;;8.65;3.95;;;16.80;99.90;;;17.04;100.00;98968.44;4808787;29;20081;-64
2023/10/19 04:43:21;;;;;;;8.00;3.67;;;16.80;99.90;;;17.02;100.00;98961.47;4816136;29;20553;-64
2023/10/19 04:45:50;;;;;;;6.65;3.70;;;16.70;99.90;;;17.08;100.00;98961.94;4816871;29;20064;-64
2023/10/19 04:48:18;;;;;;;7.65;3.75;;;16.80;99.90;;;17.04;100.00;98964.91;4808812;29;20121;-64
2023/10/19 04:50:46;;;;;;;8.90;3.88;;;16.80;99.90;;;16.99;100.00;98972.34;4820064;29;20474;-64
2023/10/19 04:53:15;;;;;;;6.72;3.97;;;16.70;99.90;;;16.94;100.00;98972.63;4813446;29;20046;-64
2023/10/19 04:55:45;;;;;;;8.45;3.85;;;16.70;99.90;;;16.87;100.00;98965.94;4811916;29;20085;-65
2023/10/19 04:58:13;;;;;;;9.85;4.25;;;16.60;99.90;;;16.88;100.00;98964.09;4819991;29;20056;-64
2023/10/19 05:00:43;;;;;;;10.48;3.25;;;16.60;99.90;;;16.86;100.00;98966.88;4810570;29;20083;-64
2023/10/19 05:03:18;;;;;;;7.00;3.85;;;16.60;99.90;;;16.88;100.00;98981.00;4815433;29;20055;-64
2023/10/19 05:05:47;;;;;;;10.25;3.78;;;16.60;99.90;;;16.94;100.00;98979.75;4802374;29;20085;-64
2023/10/19 05:08:15;;;;;;;8.05;3.50;;;16.70;99.90;;;16.26;100.00;98867.28;4808443;29;20058;-65
2023/10/19 05:10:43;;;;;;;8.35;3.53;;;16.70;99.90;;;16.92;100.00;98977.19;4817224;29;20054;-64
2023/10/19 05:13:13;;;;;;;7.32;3.60;;;16.70;99.90;;;16.94;100.00;98985.97;4814629;29;20057;-64
2023/10/19 05:15:44;;;;;;;9.10;3.67;;;16.70;99.90;;;16.95;100.00;98979.69;4808406;29;20046;-65
2023/10/19 05:18:12;;;;;;;7.35;3.92;;;16.70;99.90;;;17.01;100.00;98976.63;4820153;29;20063;-64
2023/10/19 05:20:41;;;;;;;10.35;4.38;;;16.70;99.90;;;17.03;100.00;98990.75;4812000;29;20050;-64
2023/10/19 05:23:10;;;;;;;8.45;3.42;;;16.70;99.90;;;17.00;100.00;98972.25;4812480;29;20146;-64
2023/10/19 05:25:38;;;;;;;8.35;4.07;;;16.70;99.90;;;17.07;100.00;98968.22;4819416;29;20053;-64
2023/10/19 05:28:08;;;;;;;6.13;3.30;;;16.80;99.90;;;16.88;100.00;98943.59;4808256;29;20059;-65
2023/10/19 05:30:37;;;;;;;14.95;3.63;;;16.80;99.90;;;17.07;100.00;98976.25;4816262;29;20055;-65
2023/10/19 05:33:07;;;;;;;10.48;3.65;;;16.80;99.90;;;17.02;100.00;98973.00;4799770;29;20046;-65
2023/10/19 05:35:40;;;;;;;7.43;3.55;;;16.80;99.90;;;16.98;100.00;98971.47;4807923;29;20483;-65
2023/10/19 05:38:09;;;;;;;10.23;3.95;;;16.80;99.90;;;17.03;100.00;98973.88;4817985;29;20051;-65
2023/10/19 05:40:38;;;;;;;14.65;3.92;;;16.70;99.90;;;17.07;100.00;98973.56;4796816;29;20141;-64
2023/10/19 05:43:07;;;;;;;8.20;3.53;;;16.80;99.90;;;17.07;100.00;98967.41;4810069;29;20054;-65
2023/10/19 05:45:36;;;;;;;6.35;3.70;;;16.80;99.90;;;16.88;100.00;98953.41;4819245;29;20057;-65
2023/10/19 05:48:12;;;;;;;9.95;3.97;;;16.80;99.90;;;16.94;100.00;98967.28;4810711;29;20460;-64
2023/10/19 05:50:42;;;;;;;10.20;3.60;;;16.70;99.90;;;17.00;100.00;98963.34;4812750;29;20100;-64
2023/10/19 05:53:10;;;;;;;8.90;4.22;;;16.70;99.90;;;16.94;100.00;98972.63;4818560;29;20053;-64
2023/10/19 05:55:39;;;;;;;10.65;4.43;;;16.70;99.90;;;16.89;100.00;98965.84;4791490;29;20061;-65
2023/10/19 05:58:08;;;;;;;12.90;4.00;;;16.60;99.90;;;16.79;100.00;98973.53;4818289;29;20067;-64
2023/10/19 06:00:36;;;;;;;9.82;4.03;;;16.60;99.90;;;16.80;100.00;98969.06;4814976;29;20557;-64
2023/10/19 06:03:05;;;;;;;10.48;4.18;;;16.50;99.90;;;16.90;100.00;98971.06;4808538;29;20043;-65
2023/10/19 06:05:35;;;;;;;14.32;4.43;;;16.60;99.90;;;16.75;100.00;98964.00;4808704;29;20057;-64
2023/10/19 06:08:04;;;;;;;8.38;4.07;;;16.60;99.90;;;16.77;100.00;98978.13;4818369;29;20058;-64
2023/10/19 06:10:33;;;;;;;10.50;3.95;;;16.50;99.90;;;16.76;100.00;98962.19;4802544;29;20141;-64
2023/10/19 06:13:01;;;;;;;9.93;3.97;;;16.60;99.90;;;16.90;100.00;98987.09;4810721;29;20134;-63
2023/10/19 06:15:32;;;;;;;10.05;4.10;;;16.60;99.90;;;16.92;100.00;98990.53;4821594;29;20063;-63
2023/10/19 06:18:00;;;;;;;;;;;16.60;99.90;;;16.87;100.00;98989.09;4816150;29;20062;-64
2023/10/19 06:20:29;;;;;;;9.45;4.00;;;16.70;99.90;;;16.84;100.00;98990.13;4813859;29;19925;-63
2023/10/19 06:23:04;;;;;;;13.95;3.95;;;16.60;99.90;;;16.86;100.00;98996.25;4822480;29;20062;-63
2023/10/19 06:25:35;;;;;;;12.15;4.05;;;16.60;99.90;;;16.92;100.00;98995.00;4796674;29;20054;-63
2023/10/19 06:28:04;;;;;;;11.45;4.28;;;16.60;99.90;;;16.88;100.00;99001.50;4816133;29;20115;-63
2023/10/19 06:30:32;;;;;;;10.30;4.20;;;16.60;99.90;;;16.84;100.00;99000.81;4820883;29;20066;-63
2023/10/19 06:33:02;;;;;;;13.60;4.68;;;16.60;99.90;;;16.83;100.00;99011.59;4810808;29;20402;-63
2023/10/19 06:35:33;;;;;;;14.38;4.43;;;16.60;99.90;;;16.96;100.00;99018.78;4821368;29;20067;-65
2023/10/19 06:38:03;;;;;;;9.88;4.32;;;16.70;99.90;;;16.95;100.00;99005.53;4824542;29;20062;-66
2023/10/19 06:40:36;;;;;;;10.27;4.00;;;16.70;99.90;;;16.59;100.00;98931.16;4809800;29;20058;-64
2023/10/19 06:43:05;;;;;;;16.45;4.70;;;16.80;99.90;;;16.98;100.00;99008.88;4811180;29;20050;-63
2023/10/19 06:45:34;;;;;;;10.98;4.43;;;16.80;99.90;;;17.02;100.00;99012.22;4817649;29;20129;-66
2023/10/19 06:48:03;;;;;;;10.45;4.03;;;16.70;99.90;;;16.96;100.00;99020.59;4818854;29;20450;-65
2023/10/19 06:50:33;;;;;;;10.63;4.40;;;16.70;99.90;;;16.96;100.00;99010.78;4810563;29;20059;-66
2023/10/19 06:53:05;;;;;;;10.75;3.78;;;16.70;99.90;;;16.89;100.00;99025.44;4809005;29;20046;-66
2023/10/19 06:55:33;;;;;;;9.88;4.43;;;16.70;99.90;;;16.91;100.00;99012.88;4816466;29;20158;-65
2023/10/19 06:58:02;;;;;;;13.10;4.15;;;16.70;99.90;;;16.99;100.00;99020.41;4819834;29;20038;-65
2023/10/19 07:00:33;;;;;;;13.75;4.70;;;16.70;99.90;;;17.00;100.00;99011.44;4810571;29;20050;-66
2023/10/19 07:03:02;;;;;;;9.13;4.00;;;16.80;99.90;;;17.06;100.00;99011.94;4819816;29;20135;-63
2023/10/19 07:05:31;;;;;;;16.38;4.97;;;16.80;99.90;;;17.08;100.00;99022.53;4816580;29;20055;-64
2023/10/19 07:08:02;;;;;;;13.25;4.88;;;16.80;99.90;;;17.00;100.00;99022.13;4811273;29;20043;-63
2023/10/19 07:10:32;;;;;;;12.00;4.45;;;16.80;99.90;;;16.98;100.00;99018.69;4821171;29;20042;-64
2023/10/19 07:13:00;;;;;;;10.50;4.27;;;16.70;99.90;;;16.98;100.00;99034.72;4813085;29;20062;-63
2023/10/19 07:15:29;;;;;;;13.07;4.63;;;16.70;99.90;;;16.92;100.00;99032.41;4814130;29;20125;-63
2023/10/19 07:17:59;;;;;;;15.52;4.82;;;16.70;99.90;;;16.97;100.00;99022.31;4819756;29;20493;-63
2023/10/19 07:20:28;;;;;;;16.30;4.85;;;16.80;99.90;;;17.07;100.00;99029.69;4810110;29;20107;-66
2023/10/19 07:23:00;;;;;;;10.77;4.07;;;16.80;99.90;;;17.13;100.00;99017.75;4817852;29;20055;-65
2023/10/19 07:25:31;;;;;;;12.00;4.18;;;16.80;99.90;;;17.00;100.00;99006.09;4818270;29;20078;-65
2023/10/19 07:28:00;;;;;;;;;;;16.90;99.90;;;17.24;100.00;99023.31;4810695;29;20054;-65
2023/10/19 07:30:28;;;;;;;11.93;4.85;;;17.00;99.90;;;17.14;100.00;99022.16;4820162;29;20023;-65
2023/10/19 07:32:59;;;;;;;9.98;4.55;;;16.90;99.90;;;17.27;100.00;99027.59;4798505;29;20054;-65
2023/10/19 07:35:28;;;;;;;;;;;17.00;99.90;;;17.21;100.00;99020.81;4813025;29;20055;-65
2023/10/19 07:37:57;;;;;;;13.95;4.18;;;17.00;99.90;;;17.25;100.00;99026.88;4821301;29;19929;-65
2023/10/19 07:40:26;;;;;;;16.65;5.05;;;17.00;99.90;;;17.22;100.00;99038.59;4811978;29;20194;-65
2023/10/19 07:42:57;;;;;;;9.77;4.20;;;17.00;99.90;;;17.39;100.00;99045.56;4815825;29;20047;-65
2023/10/19 07:45:25;;;;;;;11.45;4.50;;;17.10;99.90;;;17.35;100.00;99049.38;4820078;29;20307;-63
2023/10/19 07:47:54;;;;;;;13.15;4.60;;;17.20;99.90;;;17.28;100.00;99048.91;4809642;29;20078;-64
2023/10/19 07:50:23;;;;;;;15.57;4.57;;;17.10;99.90;;;17.34;100.00;99058.38;4818415;29;20042;-64
2023/10/19 07:52:53;;;;;;;15.15;5.00;;;17.10;99.90;;;17.38;100.00;99036.69;4799945;29;20412;-64
2023/10/19 07:55:23;;;;;;;12.07;4.28;;;17.10;99.90;;;17.41;100.00;99027.63;4820454;29;20401;-64
2023/10/19 07:57:53;;;;;;;15.35;4.45;;;17.20;99.90;;;17.48;100.00;99034.34;4820972;29;20051;-64
2023/10/19 08:00:24;;;;;;;12.43;4.13;;;17.20;99.90;;;17.36;100.00;99033.28;4813160;29;20054;-64
2023/10/19 08:02:55;;;;;;;15.52;4.68;;;17.20;99.90;;;17.39;100.00;99041.09;4820146;29;20074;-64
2023/10/19 08:05:23;;;;;;;;;;;17.20;99.90;;;17.32;100.00;99033.56;4821799;29;20062;-64
2023/10/19 08:07:51;;;;;;;12.55;4.60;;;17.10;99.90;;;17.49;100.00;99031.59;4810211;29;19925;-63
2023/10/19 08:10:21;;;;;;;13.98;4.88;;;17.30;99.90;;;17.37;100.00;99028.78;4815883;29;20446;-63
2023/10/19 08:12:51;;;;;;;17.20;4.65;;;17.20;99.90;;;17.29;100.00;99033.72;4817228;29;20389;-63
2023/10/19 08:15:21;;;;;;;13.93;4.82;;;17.10;99.90;;;17.34;100.00;99026.28;4809046;29;20050;-64
2023/10/19 08:17:54;;;;;;;14.73;4.95;;;17.10;99.90;;;17.35;100.00;99025.31;4818573;29;20062;-63
2023/10/19 08:20:30;;;;;;;14.95;4.78;;;17.20;99.90;;;17.41;100.00;99028.50;4814900;29;20054;-64
2023/10/19 08:23:02;;;;;;;14.98;4.70;;;17.20;99.90;;;17.53;100.00;99019.75;4809660;29;20129;-64
2023/10/19 08:25:32;;;;;;;19.20;5.55;;;17.30;99.90;;;17.47;100.00;99033.47;4809000;29;20115;-63
2023/10/19 08:28:20;;;;;;;15.63;5.47;;;17.30;99.90;;;17.57;100.00;99009.72;4813596;29;20046;-64
2023/10/19 08:30:57;;;;;;;14.05;5.20;;;17.50;99.90;;;17.74;100.00;99028.25;4819376;29;20050;-64
2023/10/19 08:33:29;;;;;;;10.60;5.18;;;17.50;99.90;;;17.77;100.00;99036.06;4809238;29;20452;-64
2023/10/19 08:35:59;;;;;;;13.10;4.35;;;17.60;99.90;;;17.93;100.00;99020.75;4815713;29;20054;-63
2023/10/19 08:38:29;;;;;;;15.18;5.38;;;17.70;99.90;;;17.97;100.00;99030.31;4817511;29;20053;-64
2023/10/19 08:40:58;;;;;;;16.50;5.65;;;17.80;99.90;;;18.11;100.00;99021.41;4808900;29;20066;-63
2023/10/19 08:43:28;;;;;;;15.85;5.82;;;17.90;99.90;;;17.98;100.00;99019.50;4818851;29;20043;-63
2023/10/19 08:45:57;;;;;;;18.73;5.13;;;17.80;99.90;;;18.22;100.00;99017.06;4798064;29;20491;-64
2023/10/19 08:48:29;;;;;;;16.27;4.70;;;18.00;99.90;;;17.94;100.00;99017.16;4810649;29;20046;-63
2023/10/19 08:50:58;;;;;;;18.25;5.40;;;17.80;99.90;;;18.01;100.00;99027.34;4820079;29;20054;-63
2023/10/19 08:53:29;;;;;;;15.93;5.32;;;17.80;99.90;;;18.08;100.00;99027.81;4811246;29;20390;-63
2023/10/19 08:56:00;;;;;;;14.55;5.25;;;17.80;99.90;;;18.15;100.00;99022.94;4813396;29;20070;-63
2023/10/19 08:58:30;;;;;;;17.02;5.47;;;17.90;99.90;;;18.17;100.00;99021.88;4819688;29;20046;-64
2023/10/19 09:01:06;;;;;;;16.77;5.25;;;18.00;99.90;;;18.12;100.00;99015.94;4808804;29;20084;-63
2023/10/19 09:03:35;;;;;;;21.02;5.50;;;17.90;99.90;;;18.15;100.00;99007.75;4807033;29;20057;-64
2023/10/19 09:06:05;;;;;;;22.77;6.20;;;18.00;99.90;;;18.14;100.00;99022.06;4811416;29;20141;-64
2023/10/19 09:08:40;;;;;;;15.40;5.35;;;17.90;99.90;;;18.12;100.00;99015.94;4819858;29;20046;-66
2023/10/19 09:11:11;;;;;;;12.93;5.30;;;17.90;99.90;;;18.20;100.00;99008.28;4810834;29;20376;-66
2023/10/19 09:13:46;;;;;;;24.45;6.15;;;17.90;99.90;;;18.16;100.00;99030.84;4813033;29;20063;-64
2023/10/19 09:16:16;;;;;;;15.75;5.30;;;18.00;99.90;;;18.06;100.00;99011.00;4819347;29;20061;-64
2023/10/19 09:18:47;;;;;;;16.17;5.47;;;17.90;99.90;;;18.12;100.00;99012.44;4808666;29;20565;-65
2023/10/19 09:21:23;;;;;;;;;;;17.90;99.90;;;17.96;100.00;99002.69;4816283;29;20397;-66
2023/10/19 09:23:53;;;;;;;20.63;6.07;;;17.90;99.90;;;17.96;100.00;98978.63;4817582;29;19973;-65
2023/10/19 09:26:22;;;;;;;17.98;5.20;;;18.00;99.90;;;18.16;100.00;99000.53;4808084;29;20069;-65
2023/10/19 09:28:53;;;;;;;19.92;5.80;;;18.00;99.90;;;17.97;100.00;98987.50;4817840;29;20180;-65
2023/10/19 09:31:24;;;;;;;19.83;6.35;;;17.80;99.90;;;18.08;100.00;99001.03;4814329;29;20047;-65
2023/10/19 09:33:56;;;;;;;18.23;6.22;;;17.90;99.90;;;18.08;100.00;98998.38;4809299;29;20051;-65
2023/10/19 09:36:29;;;;;;;15.75;5.68;;;17.80;99.90;;;18.15;100.00;98991.69;4819816;29;20138;-65
2023/10/19 09:38:58;;;;;;;16.85;5.78;;;17.90;99.90;;;18.25;100.00;98995.47;4812023;29;20058;-65
2023/10/19 09:41:29;;;;;;;18.80;5.95;;;18.00;99.90;;;18.12;100.00;98994.53;4814217;29;20074;-65
2023/10/19 09:44:05;;;;;;;18.10;5.95;;;17.90;99.90;;;18.26;100.00;98999.00;4822904;29;20050;-65
2023/10/19 09:46:38;;;;;;;17.52;6.15;;;18.00;99.90;;;18.27;100.00;98993.56;4813778;29;20434;-65
2023/10/19 09:49:11;;;;;;;19.58;6.13;;;18.10;99.90;;;18.38;100.00;98992.84;4816643;29;20512;-65
2023/10/19 09:51:42;;;;;;;19.92;6.65;;;18.10;99.90;;;18.28;100.00;98989.91;4822051;29;20046;-64
2023/10/19 09:54:33;;;;;;;21.73;6.75;;;18.20;99.90;;;18.28;100.00;98992.59;4812826;29;20086;-65
2023/10/19 09:57:12;;;;;;;20.20;6.90;;;18.20;99.90;;;18.38;100.00;99001.75;4816419;29;20055;-65
2023/10/19 09:59:42;;;;;;;22.98;6.60;;;18.20;99.90;;;18.13;100.00;98990.94;4823032;29;20131;-64
2023/10/19 10:02:13;;;;;;;19.85;6.93;;;18.00;99.90;;;18.19;100.00;98993.19;4812693;29;20115;-64
2023/10/19 10:04:45;;;;;;;15.30;6.75;;;18.00;99.90;;;18.33;100.00;99003.84;4817826;29;20105;-65
2023/10/19 10:07:15;;;;;;;18.65;6.57;;;18.10;99.90;;;18.32;100.00;99001.28;4820996;29;20081;-65
2023/10/19 10:10:06;;;;;;;23.80;6.78;;;18.10;99.90;;;18.47;100.00;98985.09;4812220;29;20129;-65
2023/10/19 10:12:35;;;;;;;17.90;6.70;;;18.20;99.90;;;18.77;100.00;98977.69;4817772;29;20055;-64
2023/10/19 10:15:07;;;;;;;14.77;5.93;;;18.50;99.90;;;18.90;100.00;98977.69;4819835;29;20046;-65
2023/10/19 10:17:38;;;;;;;19.02;6.72;;;18.70;99.90;;;19.12;100.00;98977.09;4810972;29;20063;-67
2023/10/19 10:20:34;;;;;;;;;;;18.90;99.90;;;19.28;100.00;98967.84;4820441;29;20050;-64
2023/10/19 10:23:21;;;;;;;19.88;5.97;;;19.00;99.90;;;19.49;100.00;98997.72;4820711;29;19993;-64
2023/10/19 10:25:53;;;;;;;18.90;5.88;;;19.30;99.90;;;19.40;99.76;99009.94;4811989;29;20531;-63
2023/10/19 10:28:23;;;;;;;18.00;6.13;;;19.30;99.90;;;19.54;99.81;98995.53;4817734;29;20051;-63